It's Friday,
December 13th, 2019
User not logged in
[Run Race Header Image][Run Race logo]
  
Race webcasting is attempted by race directors and their support staff. Please remember that conditions under which they're working may make it difficult to post timely webcast updates... your interest and patience is appreciated!
Race Information
Race Name:2nd Annual Indiana Trail 100
Location:Albion
State:Indiana, United States
 button: button: Webcast Autoplay
Event Information
Name of Event:100 Mile Trail
Distance:100 Miles
Started Date/Time:Saturday April 26th, 2014, 5:59:34.15 am
button: Assign Numbers  
Checkpoint:SchIn4
Distance:64.01 Miles
Gun Start Time:Saturday April 26th, 2014 5:59:34.15 am
Calculate Chip Start Time:< not set >
Y or N... Calculate splits based upon participant chip start time?
Allow Early Chip Start Time:< not set >
Y or N... Allow participants a chip start time prior to gun start?
Pos Race
Number
NameAgeSexTimePace 
1166Jim Trout44M10:15:26.99:36.9Sat Apr 26th, 2014 4:15:01 pm
2141Shan Riggs35M10:25:56.49:46.7Sat Apr 26th, 2014 4:25:30 pm
314John Bertram51M10:44:16.010:03.9Sat Apr 26th, 2014 4:43:50 pm
441Paul Dott31M10:59:50.710:18.5Sat Apr 26th, 2014 4:59:24 pm
5148Travis Shields37M11:00:52.810:19.5Sat Apr 26th, 2014 5:00:26 pm
634Vincent Corona30M11:15:25.310:33.1Sat Apr 26th, 2014 5:14:59 pm
7182Craig Wheeler52M11:18:23.810:35.9Sat Apr 26th, 2014 5:17:58 pm
8151Jen Skelly34F11:18:34.710:36.1Sat Apr 26th, 2014 5:18:08 pm
9158Paul Stofko38M11:20:37.110:38.0Sat Apr 26th, 2014 5:20:11 pm
10149Todd Siebert32M11:28:59.910:45.8Sat Apr 26th, 2014 5:28:34 pm
1126Jessica Campbell21F11:36:23.910:52.8Sat Apr 26th, 2014 5:35:58 pm
1228Tony Cesario50M12:07:56.111:22.3Sat Apr 26th, 2014 6:07:30 pm
1379David E. Jackson36M12:12:43.711:26.8Sat Apr 26th, 2014 6:12:17 pm
14140Kirk Ridenour54M12:14:07.311:28.1Sat Apr 26th, 2014 6:13:41 pm
15127Daniel Paige34M12:14:25.011:28.4Sat Apr 26th, 2014 6:13:59 pm
16161Mika Thewes22F12:17:32.511:31.3Sat Apr 26th, 2014 6:17:06 pm
1720Erin Brady42F12:22:57.311:36.4Sat Apr 26th, 2014 6:22:31 pm
1887Ryan "Stormy" Knight37M12:28:33.211:41.7Sat Apr 26th, 2014 6:28:07 pm
19129Ben Pearce19M12:29:25.311:42.5Sat Apr 26th, 2014 6:28:59 pm
20104David Mentjes44M12:37:29.511:50.0Sat Apr 26th, 2014 6:37:03 pm
2168Shawn Hawk49M12:40:03.211:52.4Sat Apr 26th, 2014 6:39:37 pm
2244Tanya Eggert44F12:58:53.412:10.1Sat Apr 26th, 2014 6:58:27 pm
2350Linda Keuneke50F13:03:51.612:14.8Sat Apr 26th, 2014 7:03:25 pm
24162Mark Thill38M13:07:09.412:17.8Sat Apr 26th, 2014 7:06:43 pm
2554Tom Fifer51M13:10:10.612:20.7Sat Apr 26th, 2014 7:09:44 pm
26184Kinga Kokoc35F13:10:32.412:21.0Sat Apr 26th, 2014 7:10:06 pm
2724todd brown45M13:12:48.012:23.1Sat Apr 26th, 2014 7:12:22 pm
28113SIAMAK MOSTOUFI39M13:12:48.112:23.1Sat Apr 26th, 2014 7:12:22 pm
2946Mike Else45M13:15:59.812:26.1Sat Apr 26th, 2014 7:15:33 pm
30145James Schroeder37M13:17:10.012:27.2Sat Apr 26th, 2014 7:16:44 pm
3163Jerret Halter32M13:17:30.812:27.6Sat Apr 26th, 2014 7:17:04 pm
32183Anastasia Andrychowski34F13:17:33.112:27.6Sat Apr 26th, 2014 7:17:07 pm
33123Reggie O'HARA45M13:25:12.612:34.8Sat Apr 26th, 2014 7:24:46 pm
34133Richard Plezia55M13:28:09.412:37.5Sat Apr 26th, 2014 7:27:43 pm
3557Mark Gavorski48M13:29:24.312:38.7Sat Apr 26th, 2014 7:28:58 pm
36115Carolynn Nauta32F13:32:25.212:41.5Sat Apr 26th, 2014 7:31:59 pm
37114Larry Mullinnix49M13:33:41.712:42.7Sat Apr 26th, 2014 7:33:15 pm
38125Jeff Oliver40M13:35:09.812:44.1Sat Apr 26th, 2014 7:34:43 pm
3936John Cushma40M13:35:50.612:44.7Sat Apr 26th, 2014 7:35:24 pm
4062Martin Guthrie47M13:36:33.312:45.4Sat Apr 26th, 2014 7:36:07 pm
41154Mike Smith56M13:37:10.212:46.0Sat Apr 26th, 2014 7:36:44 pm
42103Chris McMahon54M13:38:08.212:46.9Sat Apr 26th, 2014 7:37:42 pm
4372Rich Henderson58M13:38:08.412:46.9Sat Apr 26th, 2014 7:37:42 pm
44116David Nelson26M13:38:10.712:46.9Sat Apr 26th, 2014 7:37:44 pm
45134dave potter49M13:41:44.712:50.3Sat Apr 26th, 2014 7:41:18 pm
4640Noe j Dominguez45M13:42:05.212:50.6Sat Apr 26th, 2014 7:41:39 pm
47126Julie Pagel29F13:42:30.412:51.0Sat Apr 26th, 2014 7:42:04 pm
48177Eric Fritz46M13:50:06.612:58.1Sat Apr 26th, 2014 7:49:40 pm
49108Joshua Mock32M13:51:07.012:59.1Sat Apr 26th, 2014 7:50:41 pm
5042Michael Dowdell38M13:53:35.513:01.4Sat Apr 26th, 2014 7:53:09 pm
51147mark sheeran54M13:55:06.813:02.8Sat Apr 26th, 2014 7:54:40 pm
525LEE ANDERSON56M13:57:54.013:05.4Sat Apr 26th, 2014 7:57:28 pm
53181Rene Samano28M14:03:24.513:10.6Sat Apr 26th, 2014 8:02:58 pm
54180Michael Linkogel43M14:08:24.913:15.3Sat Apr 26th, 2014 8:07:59 pm
5556Helen Garen49F14:09:27.513:16.2Sat Apr 26th, 2014 8:09:01 pm
56156Phil Stapert47M14:10:05.613:16.8Sat Apr 26th, 2014 8:09:39 pm
57107Kirk Misaka55M14:16:30.313:22.8Sat Apr 26th, 2014 8:16:04 pm
588Brian Barger53M14:19:19.813:25.5Sat Apr 26th, 2014 8:18:54 pm
59169Chris Walker34M14:23:15.813:29.2Sat Apr 26th, 2014 8:22:49 pm
6076Scott Hudson46M14:26:02.413:31.8Sat Apr 26th, 2014 8:25:36 pm
6191Bill Kulwicki55M14:27:26.313:33.1Sat Apr 26th, 2014 8:27:00 pm
6283Chris Junken35M14:30:41.613:36.1Sat Apr 26th, 2014 8:30:15 pm
63178Joe Cuthbertson39M14:32:06.513:37.5Sat Apr 26th, 2014 8:31:40 pm
6466Dick Canterbury66M14:35:45.713:40.9Sat Apr 26th, 2014 8:35:19 pm
65143Matthew Santner37M14:41:05.713:45.9Sat Apr 26th, 2014 8:40:39 pm
66171Marci Wease37F14:43:27.613:48.1Sat Apr 26th, 2014 8:43:01 pm
6739Nathan DeWall34M14:49:34.513:53.8Sat Apr 26th, 2014 8:49:08 pm
68165Judd Trayling40M14:49:34.713:53.8Sat Apr 26th, 2014 8:49:08 pm
6925Aaron Butler32M14:52:53.713:57.0Sat Apr 26th, 2014 8:52:27 pm
7021Bob Brashear55M14:54:13.013:58.2Sat Apr 26th, 2014 8:53:47 pm
71159Steve Sunbury44M14:56:24.414:00.2Sat Apr 26th, 2014 8:55:58 pm
7273Jeff Hogan45M15:03:14.214:06.7Sat Apr 26th, 2014 9:02:48 pm
73174Randall Yost55M15:07:07.114:10.3Sat Apr 26th, 2014 9:06:41 pm
7417Andrew Borst43M15:13:47.914:16.6Sat Apr 26th, 2014 9:13:22 pm
75135Rob Putz48M15:16:51.914:19.4Sat Apr 26th, 2014 9:16:26 pm
76130Alfredo ''Moose'' Pedro45M15:17:05.914:19.6Sat Apr 26th, 2014 9:16:40 pm
77146Rob Schultz47M15:17:07.614:19.7Sat Apr 26th, 2014 9:16:41 pm
7852Jamie Farley35M15:24:50.714:26.9Sat Apr 26th, 2014 9:24:24 pm
794Jonathon Amlung44M15:25:59.114:28.0Sat Apr 26th, 2014 9:25:33 pm
80121Mark Norfleet57M15:29:13.814:31.0Sat Apr 26th, 2014 9:28:47 pm
812Kurt Adams35M15:36:52.514:38.2Sat Apr 26th, 2014 9:36:26 pm
8216toni bohannon46F15:36:53.414:38.2Sat Apr 26th, 2014 9:36:27 pm
8378Lauren Idzik43F15:39:23.014:40.5Sat Apr 26th, 2014 9:38:57 pm
8499Daniel Maddox38M15:41:23.014:42.4Sat Apr 26th, 2014 9:40:57 pm
8564Cindylee Torres54F15:41:47.614:42.8Sat Apr 26th, 2014 9:41:21 pm
8682Juan Juarez42M15:42:43.114:43.7Sat Apr 26th, 2014 9:42:17 pm
8793John Leighton53M15:42:51.814:43.8Sat Apr 26th, 2014 9:42:25 pm
886Ric Angara43M15:52:32.814:52.9Sat Apr 26th, 2014 9:52:06 pm
89163Derek Tinnin46M15:54:28.714:54.7Sat Apr 26th, 2014 9:54:02 pm
9048Karen Erba44F15:54:29.714:54.7Sat Apr 26th, 2014 9:54:03 pm
9169Kent Heck52M15:55:37.414:55.8Sat Apr 26th, 2014 9:55:11 pm
9274Alex "ACE" Honigford33M15:57:39.014:57.7Sat Apr 26th, 2014 9:57:13 pm
93124Ethan Olds24M16:04:48.015:04.4Sat Apr 26th, 2014 10:04:22 pm
9431Mark Coates33M16:14:43.615:13.7Sat Apr 26th, 2014 10:14:17 pm
9586John Klarquist49M16:16:00.615:14.9Sat Apr 26th, 2014 10:15:34 pm
96120Caleb Nolen28M16:19:48.615:18.4Sat Apr 26th, 2014 10:19:22 pm
97105Craig Meseko29M16:19:48.615:18.4Sat Apr 26th, 2014 10:19:22 pm
9833Aaron Conner41M16:25:53.615:24.1Sat Apr 26th, 2014 10:25:27 pm
9970Mike Heider54M16:28:49.215:26.9Sat Apr 26th, 2014 10:28:23 pm
1003Justin Alford40M16:28:52.815:26.9Sat Apr 26th, 2014 10:28:26 pm
101111James Cooper44M16:40:44.815:38.1Sat Apr 26th, 2014 10:40:19 pm
102167Ali Turfe50M16:42:06.015:39.3Sat Apr 26th, 2014 10:41:40 pm
10335Joe Cortez49M16:44:27.415:41.5Sat Apr 26th, 2014 10:44:01 pm
10453Ramon Ferrer Jr34M16:45:15.615:42.3Sat Apr 26th, 2014 10:44:49 pm
105132Catherine Pinkston29F16:45:29.215:42.5Sat Apr 26th, 2014 10:45:03 pm
106122Terry Null55M16:47:02.915:44.0Sat Apr 26th, 2014 10:46:37 pm
10738James Davidson51M16:48:20.015:45.2Sat Apr 26th, 2014 10:47:54 pm
1089Crystal Barton38F16:49:22.615:46.1Sat Apr 26th, 2014 10:48:56 pm
10912Richard Barton61M16:49:27.215:46.2Sat Apr 26th, 2014 10:49:01 pm
110101Sondra Marker50F16:56:11.615:52.5Sat Apr 26th, 2014 10:55:45 pm
11110Kathy Barton57F16:56:22.415:52.7Sat Apr 26th, 2014 10:55:56 pm
11211Mark Barton57M16:56:42.415:53.0Sat Apr 26th, 2014 10:56:16 pm
113150Robert Siscoe59M16:58:17.215:54.5Sat Apr 26th, 2014 10:57:51 pm
114137Jamie Quarandillo40F17:13:45.916:09.0Sat Apr 26th, 2014 11:13:20 pm
115176Stan Zygmunt51M17:19:38.616:14.5Sat Apr 26th, 2014 11:19:12 pm
11618James Bowers36M17:19:39.916:14.5Sat Apr 26th, 2014 11:19:14 pm
11747David Englund46M17:21:48.316:16.5Sat Apr 26th, 2014 11:21:22 pm
118173Michael Wolff41M17:38:28.316:32.2Sat Apr 26th, 2014 11:38:02 pm
119102Rick McClain52M17:40:02.916:33.6Sat Apr 26th, 2014 11:39:37 pm
120138Frank Rampton57M17:47:05.916:40.2Sat Apr 26th, 2014 11:46:40 pm
12181MELISSA JOYCE-HASSAN49F17:48:17.016:41.4Sat Apr 26th, 2014 11:47:51 pm
12223Kimmie Brown34F18:01:53.416:54.1Sun Apr 27th, 2014 12:01:27 am
123172Kenneth Westerman55M18:04:34.416:56.6Sun Apr 27th, 2014 12:04:08 am
12415sandra bocchicchio41F18:04:35.416:56.6Sun Apr 27th, 2014 12:04:09 am
12597Suann Lundsberg38F18:27:12.617:17.8Sun Apr 27th, 2014 12:26:46 am
12651Dan Fabish18M19:08:22.317:56.4Sun Apr 27th, 2014 1:07:56 am

Event Information
Name of Event:50 Mile Trail
Distance:50 Miles
Started Date/Time:Saturday April 26th, 2014, 5:59:34.15 am
button: Assign Numbers 
2004-2019 : All rights reserved
Terms and Conditions